createdAt,value
2023-04-12T00:02:19.975Z,10.70
2023-04-12T00:04:55.803Z,10.70
2023-04-12T00:07:25.072Z,10.60
2023-04-12T00:09:52.096Z,10.60
2023-04-12T00:12:19.806Z,10.40
2023-04-12T00:14:47.458Z,10.20
2023-04-12T00:17:14.702Z,9.80
2023-04-12T00:19:45.107Z,9.80
2023-04-12T00:22:12.417Z,9.60
2023-04-12T00:24:40.555Z,9.50
2023-04-12T00:27:08.120Z,9.20
2023-04-12T00:29:35.168Z,9.30
2023-04-12T00:32:03.875Z,9.20
2023-04-12T00:34:31.079Z,9.10
2023-04-12T00:36:58.155Z,9.00
2023-04-12T00:39:26.365Z,9.20
2023-04-12T00:41:53.412Z,9.00
2023-04-12T00:44:20.632Z,8.90
2023-04-12T00:46:47.815Z,9.10
2023-04-12T00:49:15.856Z,8.90
2023-04-12T00:51:43.141Z,8.70
2023-04-12T00:54:10.185Z,8.70
2023-04-12T00:56:38.466Z,8.70
2023-04-12T00:59:05.608Z,8.70
2023-04-12T01:01:32.653Z,8.70
2023-04-12T01:04:05.182Z,8.70
2023-04-12T01:06:46.695Z,8.70
2023-04-12T01:09:46.746Z,8.80
2023-04-12T01:12:36.304Z,8.60
2023-04-12T01:15:16.726Z,8.60
2023-04-12T01:17:58.381Z,8.40
2023-04-12T01:20:31.468Z,8.30
2023-04-12T01:23:18.074Z,8.30
2023-04-12T01:26:21.976Z,8.30
2023-04-12T01:28:53.408Z,8.20
2023-04-12T01:31:21.879Z,8.20
2023-04-12T01:33:51.468Z,8.00
2023-04-12T01:36:46.278Z,8.00
2023-04-12T01:39:13.320Z,8.00
2023-04-12T01:41:45.730Z,7.90
2023-04-12T01:44:16.745Z,7.80
2023-04-12T01:46:46.991Z,7.80
2023-04-12T01:49:16.099Z,7.70
2023-04-12T01:51:55.704Z,7.50
2023-04-12T01:54:29.534Z,7.50
2023-04-12T01:57:03.422Z,7.60
2023-04-12T01:59:42.442Z,7.50
2023-04-12T02:02:10.679Z,7.50
2023-04-12T02:04:38.786Z,7.60
2023-04-12T02:07:05.955Z,7.50
2023-04-12T02:09:38.480Z,7.40
2023-04-12T02:12:06.733Z,7.40
2023-04-12T02:14:34.049Z,7.30
2023-04-12T02:17:04.676Z,7.30
2023-04-12T02:19:32.794Z,7.60
2023-04-12T02:21:59.977Z,7.80
2023-04-12T02:24:27.495Z,7.80
2023-04-12T02:26:55.195Z,7.80
2023-04-12T02:29:22.330Z,7.50
2023-04-12T02:31:49.357Z,7.30
2023-04-12T02:34:18.246Z,7.20
2023-04-12T02:36:49.727Z,7.20
2023-04-12T02:39:22.340Z,7.10
2023-04-12T02:41:49.488Z,7.10
2023-04-12T02:44:16.509Z,7.30
2023-04-12T02:46:43.579Z,7.10
2023-04-12T02:49:10.548Z,7.00
2023-04-12T02:51:38.539Z,7.10
2023-04-12T02:54:06.096Z,6.90
2023-04-12T02:56:36.347Z,6.80
2023-04-12T02:59:03.373Z,6.90
2023-04-12T03:01:31.137Z,6.90
2023-04-12T03:03:58.541Z,7.10
2023-04-12T03:06:25.795Z,7.10
2023-04-12T03:08:52.766Z,7.10
2023-04-12T03:11:19.714Z,7.20
2023-04-12T03:13:46.697Z,7.10
2023-04-12T03:16:25.375Z,7.10
2023-04-12T03:18:52.359Z,7.10
2023-04-12T03:21:19.338Z,7.00
2023-04-12T03:23:46.364Z,7.10
2023-04-12T03:26:13.741Z,7.10
2023-04-12T03:28:41.648Z,7.10
2023-04-12T03:31:08.928Z,7.30
2023-04-12T03:33:36.106Z,7.50
2023-04-12T03:36:03.316Z,7.40
2023-04-12T03:38:30.466Z,7.50
2023-04-12T03:40:57.627Z,7.60
2023-04-12T03:43:24.570Z,7.80
2023-04-12T03:45:51.647Z,7.70
2023-04-12T03:48:18.653Z,7.90
2023-04-12T03:50:45.663Z,7.90
2023-04-12T03:53:13.277Z,7.90
2023-04-12T03:55:40.678Z,8.00
2023-04-12T03:58:07.705Z,7.90
2023-04-12T04:00:34.780Z,8.10
2023-04-12T04:03:03.528Z,8.20
2023-04-12T04:05:31.441Z,8.30
2023-04-12T04:08:02.782Z,8.40
2023-04-12T04:10:30.125Z,8.50
2023-04-12T04:12:57.295Z,8.60
2023-04-12T04:15:26.290Z,8.80
2023-04-12T04:17:53.770Z,8.90
2023-04-12T04:20:20.926Z,8.90
2023-04-12T04:22:48.328Z,9.10
2023-04-12T04:25:16.059Z,9.20
2023-04-12T04:27:44.978Z,9.40
2023-04-12T04:30:16.541Z,9.40
2023-04-12T04:32:43.867Z,9.50
2023-04-12T04:35:11.221Z,9.60
2023-04-12T04:37:38.353Z,9.70
2023-04-12T04:40:09.677Z,9.90
2023-04-12T04:42:38.460Z,10.10
2023-04-12T04:45:13.166Z,10.30
2023-04-12T04:47:40.605Z,10.30
2023-04-12T04:50:08.570Z,10.40
2023-04-12T04:52:37.776Z,10.50
2023-04-12T04:55:06.990Z,10.50
2023-04-12T04:57:35.069Z,10.80
2023-04-12T05:00:02.534Z,10.90
2023-04-12T05:02:30.218Z,10.90
2023-04-12T05:04:57.404Z,11.00
2023-04-12T05:07:25.943Z,11.20
2023-04-12T05:09:52.974Z,11.50
2023-04-12T05:12:19.967Z,11.70
2023-04-12T05:14:49.842Z,11.70
2023-04-12T05:17:18.805Z,11.30
2023-04-12T05:19:45.836Z,11.60
2023-04-12T05:22:14.149Z,12.10
2023-04-12T05:24:41.205Z,12.50
2023-04-12T05:27:08.822Z,12.60
2023-04-12T05:29:35.773Z,12.80
2023-04-12T05:32:03.048Z,12.90
2023-04-12T05:34:30.659Z,13.20
2023-04-12T05:36:59.666Z,13.20
2023-04-12T05:39:27.623Z,13.30
2023-04-12T05:41:54.660Z,13.50
2023-04-12T05:44:21.865Z,13.60
2023-04-12T05:46:48.976Z,14.00
2023-04-12T05:49:16.406Z,14.10
2023-04-12T05:51:43.370Z,14.50
2023-04-12T05:54:10.771Z,14.50
2023-04-12T05:56:38.039Z,14.50
2023-04-12T05:59:05.371Z,14.50
2023-04-12T06:01:33.469Z,14.40
2023-04-12T06:04:06.039Z,14.50
2023-04-12T06:06:33.830Z,14.70
2023-04-12T06:09:01.168Z,14.80
2023-04-12T06:11:28.431Z,15.30
2023-04-12T06:13:55.721Z,15.30
2023-04-12T06:16:22.973Z,15.40
2023-04-12T06:18:49.965Z,15.70
2023-04-12T06:21:17.254Z,15.00
2023-04-12T06:23:44.393Z,14.60
2023-04-12T06:26:11.710Z,15.00
2023-04-12T06:28:38.888Z,14.90
2023-04-12T06:31:07.048Z,15.30
2023-04-12T06:33:34.176Z,15.10
2023-04-12T06:36:01.337Z,15.60
2023-04-12T06:38:28.415Z,16.30
2023-04-12T06:40:55.635Z,16.20
2023-04-12T06:43:22.903Z,16.10
2023-04-12T06:45:50.426Z,16.10
2023-04-12T06:48:17.463Z,15.60
2023-04-12T06:50:45.475Z,16.20
2023-04-12T06:53:13.760Z,17.00
2023-04-12T06:55:42.113Z,17.60
2023-04-12T06:58:09.196Z,17.30
2023-04-12T07:00:36.224Z,17.50
2023-04-12T07:03:03.518Z,18.30
2023-04-12T07:05:30.761Z,18.60
2023-04-12T07:07:57.791Z,19.10
2023-04-12T07:10:24.772Z,18.80
2023-04-12T07:12:52.080Z,17.60
2023-04-12T07:15:19.163Z,18.80
2023-04-12T07:17:46.229Z,20.50
2023-04-12T07:20:13.350Z,21.00
2023-04-12T07:22:40.511Z,21.50
2023-04-12T07:25:11.048Z,21.50
2023-04-12T07:27:39.159Z,22.50
2023-04-12T07:30:06.739Z,22.20
2023-04-12T07:32:33.811Z,21.00
2023-04-12T07:35:01.004Z,22.70
2023-04-12T07:37:28.050Z,20.70
2023-04-12T07:39:55.082Z,20.90
2023-04-12T07:42:22.130Z,19.70
2023-04-12T07:44:49.236Z,20.30
2023-04-12T07:47:16.496Z,21.50
2023-04-12T07:49:43.535Z,21.00
2023-04-12T07:52:10.640Z,19.90
2023-04-12T07:54:38.102Z,20.80
2023-04-12T07:57:05.086Z,20.90
2023-04-12T07:59:32.277Z,23.50
2023-04-12T08:01:59.570Z,22.80
2023-04-12T08:04:28.429Z,23.10
2023-04-12T08:06:56.191Z,22.40
2023-04-12T08:09:23.712Z,23.20
2023-04-12T08:11:51.023Z,23.10
2023-04-12T08:14:18.040Z,22.30
2023-04-12T08:16:45.174Z,24.60
2023-04-12T08:19:12.220Z,23.00
2023-04-12T08:21:39.391Z,22.80
2023-04-12T08:24:06.888Z,22.50
2023-04-12T08:26:33.975Z,22.90
2023-04-12T08:29:01.052Z,22.00
2023-04-12T08:31:28.965Z,21.70
2023-04-12T08:33:56.804Z,21.10
2023-04-12T08:36:24.123Z,21.30
2023-04-12T08:38:53.144Z,21.90
2023-04-12T08:41:20.454Z,20.00
2023-04-12T08:43:47.892Z,20.90
2023-04-12T08:46:16.274Z,21.50
2023-04-12T08:48:48.093Z,21.40
2023-04-12T08:51:17.410Z,19.40
2023-04-12T08:53:44.812Z,21.20
2023-04-12T08:56:13.680Z,22.50
2023-04-12T08:58:42.324Z,21.30
2023-04-12T09:01:15.845Z,21.60
2023-04-12T09:03:44.260Z,23.00
2023-04-12T09:06:14.530Z,23.70
2023-04-12T09:08:55.677Z,21.50
2023-04-12T09:11:27.781Z,21.70
2023-04-12T09:13:56.403Z,20.50
2023-04-12T09:16:40.664Z,22.10
2023-04-12T09:19:08.931Z,22.00
2023-04-12T09:21:37.214Z,22.90
2023-04-12T09:24:12.332Z,22.40
2023-04-12T09:26:40.645Z,23.00
2023-04-12T09:29:25.218Z,25.10
2023-04-12T09:31:56.589Z,23.20
2023-04-12T09:34:25.216Z,22.00
2023-04-12T09:36:53.783Z,23.00
2023-04-12T09:39:20.994Z,21.20
2023-04-12T09:41:48.157Z,24.30
2023-04-12T09:44:30.819Z,23.50
2023-04-12T09:47:00.973Z,22.90
2023-04-12T09:49:39.223Z,24.40
2023-04-12T09:52:07.735Z,23.60
2023-04-12T09:54:39.560Z,25.00
2023-04-12T09:57:10.670Z,26.60
2023-04-12T09:59:41.127Z,25.30
2023-04-12T10:02:20.310Z,22.40
2023-04-12T10:04:49.265Z,22.60
2023-04-12T10:07:17.600Z,23.20
2023-04-12T10:09:44.956Z,22.80
2023-04-12T10:12:11.963Z,23.50
2023-04-12T10:14:40.061Z,25.00
2023-04-12T10:17:09.415Z,25.40
2023-04-12T10:19:37.668Z,24.20
2023-04-12T10:22:04.765Z,25.40
2023-04-12T10:24:32.421Z,24.20
2023-04-12T10:27:03.204Z,23.40
2023-04-12T10:29:32.070Z,24.10
2023-04-12T10:32:20.708Z,25.10
2023-04-12T10:34:56.299Z,23.40
2023-04-12T10:37:43.417Z,23.30
2023-04-12T10:40:19.309Z,25.60
2023-04-12T10:42:46.418Z,25.60
2023-04-12T10:45:31.844Z,26.00
2023-04-12T10:48:00.666Z,25.40
2023-04-12T10:50:30.209Z,25.30
2023-04-12T10:53:18.395Z,26.00
2023-04-12T10:55:46.134Z,25.70
2023-04-12T10:58:48.306Z,25.40
2023-04-12T11:01:19.011Z,25.30
2023-04-12T11:04:05.992Z,22.50
2023-04-12T11:06:42.458Z,24.10
2023-04-12T11:09:44.620Z,24.50
2023-04-12T11:12:15.827Z,23.40
2023-04-12T11:14:47.144Z,22.80
2023-04-12T11:17:17.171Z,23.90
2023-04-12T11:19:45.387Z,24.00
2023-04-12T11:22:17.296Z,23.30
2023-04-12T11:24:46.781Z,25.40
2023-04-12T11:27:16.440Z,26.60
2023-04-12T11:29:44.765Z,25.00
2023-04-12T11:32:14.276Z,24.30
2023-04-12T11:34:43.667Z,23.50
2023-04-12T11:37:11.234Z,20.40
2023-04-12T11:39:45.968Z,22.70
2023-04-12T11:42:21.413Z,24.70
2023-04-12T11:44:57.321Z,23.70
2023-04-12T11:47:26.972Z,24.50
2023-04-12T11:49:58.726Z,23.70
2023-04-12T11:52:33.793Z,23.80
2023-04-12T11:55:07.008Z,25.80
2023-04-12T11:57:35.427Z,25.50
2023-04-12T12:00:06.439Z,23.30
2023-04-12T12:02:41.145Z,23.40
2023-04-12T12:05:13.809Z,24.60
2023-04-12T12:07:41.183Z,25.80
2023-04-12T12:10:09.416Z,23.90
2023-04-12T12:12:36.416Z,23.90
2023-04-12T12:15:03.687Z,23.00
2023-04-12T12:17:30.986Z,23.60
2023-04-12T12:19:59.509Z,23.60
2023-04-12T12:22:26.638Z,22.70
2023-04-12T12:24:58.346Z,22.90
2023-04-12T12:27:37.889Z,24.00
2023-04-12T12:30:07.979Z,23.60
2023-04-12T12:32:37.318Z,24.20
2023-04-12T12:35:12.868Z,23.70
2023-04-12T12:37:52.696Z,24.60
2023-04-12T12:40:28.239Z,23.80
2023-04-12T12:42:56.370Z,23.80
2023-04-12T12:45:25.852Z,23.60
2023-04-12T12:48:04.897Z,23.80
2023-04-12T12:50:34.585Z,26.10
2023-04-12T12:53:02.898Z,25.20
2023-04-12T12:55:31.647Z,23.40
2023-04-12T12:58:06.718Z,22.70
2023-04-12T13:00:36.676Z,22.10
2023-04-12T13:03:04.257Z,23.50
2023-04-12T13:05:31.709Z,23.10
2023-04-12T13:07:58.816Z,23.30
2023-04-12T13:10:27.267Z,24.20
2023-04-12T13:12:54.317Z,25.00
2023-04-12T13:15:23.550Z,24.20
2023-04-12T13:17:53.166Z,23.80
2023-04-12T13:20:21.167Z,23.10
2023-04-12T13:22:48.199Z,22.80
2023-04-12T13:25:15.245Z,23.20
2023-04-12T13:27:42.595Z,23.50
2023-04-12T13:30:09.921Z,23.50
2023-04-12T13:32:37.310Z,23.40
2023-04-12T13:35:05.069Z,22.50
2023-04-12T13:37:32.199Z,22.90
2023-04-12T13:39:59.218Z,23.40
2023-04-12T13:42:26.304Z,23.60
2023-04-12T13:44:53.291Z,23.40
2023-04-12T13:47:20.387Z,23.60
2023-04-12T13:49:47.449Z,24.60
2023-04-12T13:52:14.543Z,23.20
2023-04-12T13:54:43.430Z,21.70
2023-04-12T13:57:10.691Z,22.00
2023-04-12T13:59:37.840Z,21.60
2023-04-12T14:02:04.972Z,21.20
2023-04-12T14:04:32.329Z,22.50
2023-04-12T14:06:59.921Z,22.80
2023-04-12T14:09:28.740Z,23.50
2023-04-12T14:11:57.895Z,22.30
2023-04-12T14:14:27.463Z,21.20
2023-04-12T14:16:59.215Z,23.10
2023-04-12T14:19:26.602Z,22.60
2023-04-12T14:21:54.086Z,20.80
2023-04-12T14:24:21.737Z,21.00
2023-04-12T14:26:50.367Z,20.20
2023-04-12T14:29:17.601Z,20.20
2023-04-12T14:31:44.875Z,21.00
2023-04-12T14:34:13.385Z,21.80
2023-04-12T14:36:40.953Z,21.30
2023-04-12T14:39:11.226Z,21.00
2023-04-12T14:41:40.823Z,20.40
2023-04-12T14:44:07.812Z,20.00
2023-04-12T14:46:34.942Z,19.50
2023-04-12T14:49:02.222Z,19.90
2023-04-12T14:51:29.820Z,19.60
2023-04-12T14:53:57.388Z,19.80
2023-04-12T14:56:28.804Z,19.30
2023-04-12T14:58:57.422Z,19.00
2023-04-12T15:01:25.451Z,18.90
2023-04-12T15:03:53.287Z,19.20
2023-04-12T15:06:23.321Z,19.20
2023-04-12T15:08:57.497Z,18.60
2023-04-12T15:11:27.432Z,18.70
2023-04-12T15:13:55.587Z,19.10
2023-04-12T15:16:23.393Z,18.60
2023-04-12T15:18:51.711Z,18.20
2023-04-12T15:21:19.210Z,18.10
2023-04-12T15:23:47.432Z,18.10
2023-04-12T15:26:15.026Z,18.20
2023-04-12T15:28:42.638Z,17.90
2023-04-12T15:31:12.125Z,18.10
2023-04-12T15:33:42.041Z,18.10
2023-04-12T15:36:09.370Z,17.80
2023-04-12T15:38:42.574Z,17.80
2023-04-12T15:41:09.692Z,17.80
2023-04-12T15:43:36.918Z,17.60
2023-04-12T15:46:04.471Z,17.60
2023-04-12T15:48:31.728Z,17.50
2023-04-12T15:50:59.234Z,17.50
2023-04-12T15:53:27.572Z,17.40
2023-04-12T15:55:58.026Z,17.20
2023-04-12T15:58:27.020Z,17.40
2023-04-12T16:00:54.535Z,17.40
2023-04-12T16:03:26.776Z,17.20
2023-04-12T16:05:54.408Z,17.10
2023-04-12T16:08:22.556Z,17.00
2023-04-12T16:10:50.898Z,17.00
2023-04-12T16:13:18.739Z,17.00
2023-04-12T16:15:48.778Z,16.90
2023-04-12T16:18:17.311Z,16.90
2023-04-12T16:20:45.566Z,16.90
2023-04-12T16:23:13.550Z,16.80
2023-04-12T16:25:40.904Z,16.80
2023-04-12T16:28:08.260Z,16.80
2023-04-12T16:30:36.154Z,16.80
2023-04-12T16:33:03.418Z,16.70
2023-04-12T16:35:30.490Z,16.70
2023-04-12T16:37:57.691Z,16.60
2023-04-12T16:40:24.790Z,16.50
2023-04-12T16:42:52.154Z,16.60
2023-04-12T16:45:19.875Z,16.50
2023-04-12T16:47:47.724Z,16.50
2023-04-12T16:50:15.582Z,16.40
2023-04-12T16:52:42.994Z,16.30
2023-04-12T16:55:13.565Z,16.20
2023-04-12T16:57:42.332Z,16.20
2023-04-12T17:00:19.525Z,16.40
2023-04-12T17:02:51.330Z,16.30
2023-04-12T17:05:20.001Z,16.20
2023-04-12T17:07:52.132Z,16.20
2023-04-12T17:10:21.382Z,16.20
2023-04-12T17:12:50.611Z,16.20
2023-04-12T17:15:20.984Z,16.20
2023-04-12T17:17:51.036Z,16.10
2023-04-12T17:20:23.263Z,16.10
2023-04-12T17:22:51.141Z,15.90
2023-04-12T17:25:21.485Z,15.90
2023-04-12T17:27:53.915Z,15.80
2023-04-12T17:30:21.170Z,15.80
2023-04-12T17:32:48.521Z,15.70
2023-04-12T17:35:17.473Z,15.70
2023-04-12T17:37:45.064Z,15.70
2023-04-12T17:40:13.078Z,15.60
2023-04-12T17:42:42.201Z,15.70
2023-04-12T17:45:12.610Z,15.70
2023-04-12T17:47:59.785Z,15.60
2023-04-12T17:50:26.954Z,15.60
2023-04-12T17:53:13.104Z,15.60
2023-04-12T17:55:40.997Z,15.50
2023-04-12T17:58:08.435Z,15.20
2023-04-12T18:00:35.537Z,14.80
2023-04-12T18:03:02.637Z,14.70
2023-04-12T18:05:29.818Z,14.80
2023-04-12T18:07:57.211Z,14.80
2023-04-12T18:10:26.488Z,14.80
2023-04-12T18:12:54.086Z,14.50
2023-04-12T18:15:21.780Z,14.40
2023-04-12T18:17:48.972Z,14.40
2023-04-12T18:20:16.590Z,14.80
2023-04-12T18:23:02.657Z,14.70
2023-04-12T18:25:30.310Z,15.00
2023-04-12T18:27:57.684Z,15.10
2023-04-12T18:30:24.724Z,15.10
2023-04-12T18:32:51.853Z,15.20
2023-04-12T18:35:19.040Z,15.10
2023-04-12T18:37:47.047Z,15.00
2023-04-12T18:40:14.181Z,15.10
2023-04-12T18:42:41.189Z,15.10
2023-04-12T18:45:09.636Z,15.10
2023-04-12T18:47:39.077Z,15.10
2023-04-12T18:50:07.282Z,15.10
2023-04-12T18:52:55.856Z,15.00
2023-04-12T18:55:23.017Z,15.00
2023-04-12T18:57:50.253Z,14.90
2023-04-12T19:00:18.582Z,14.80
2023-04-12T19:02:45.629Z,14.80
2023-04-12T19:05:14.852Z,14.80
2023-04-12T19:07:42.057Z,14.70
2023-04-12T19:10:28.142Z,14.80
2023-04-12T19:12:55.373Z,14.80
2023-04-12T19:15:22.755Z,14.70
2023-04-12T19:17:50.844Z,14.60
2023-04-12T19:20:18.348Z,14.60
2023-04-12T19:22:45.405Z,14.60
2023-04-12T19:25:12.560Z,14.60
2023-04-12T19:27:39.764Z,14.40
2023-04-12T19:30:08.794Z,14.50
2023-04-12T19:32:35.832Z,14.50
2023-04-12T19:35:21.312Z,14.40
2023-04-12T19:37:50.187Z,14.30
2023-04-12T19:40:17.803Z,14.30
2023-04-12T19:42:44.837Z,14.40
2023-04-12T19:45:12.189Z,14.40
2023-04-12T19:47:44.825Z,14.30
2023-04-12T19:50:15.703Z,14.40
2023-04-12T19:52:48.869Z,14.20
2023-04-12T19:55:16.476Z,14.10
2023-04-12T19:57:43.496Z,14.20
2023-04-12T20:00:23.022Z,14.10
2023-04-12T20:02:51.399Z,14.10
2023-04-12T20:05:20.060Z,14.20
2023-04-12T20:07:47.147Z,14.10
2023-04-12T20:10:15.607Z,14.10
2023-04-12T20:12:42.736Z,14.00
2023-04-12T20:15:14.248Z,13.90
2023-04-12T20:17:43.082Z,14.00
2023-04-12T20:20:11.167Z,13.50
2023-04-12T20:22:39.206Z,13.40
2023-04-12T20:25:06.432Z,13.70
2023-04-12T20:27:33.929Z,14.00
2023-04-12T20:30:01.727Z,13.60
2023-04-12T20:32:29.611Z,13.30
2023-04-12T20:34:56.869Z,13.10
2023-04-12T20:37:23.920Z,13.40
2023-04-12T20:39:51.685Z,13.30
2023-04-12T20:42:21.416Z,13.20
2023-04-12T20:44:48.971Z,13.40
2023-04-12T20:47:16.264Z,13.50
2023-04-12T20:49:43.331Z,13.70
2023-04-12T20:52:11.046Z,13.80
2023-04-12T20:54:38.635Z,13.70
2023-04-12T20:57:05.654Z,13.70
2023-04-12T20:59:33.985Z,13.80
2023-04-12T21:02:01.304Z,13.70
2023-04-12T21:04:36.608Z,13.60
2023-04-12T21:07:05.197Z,13.40
2023-04-12T21:09:32.515Z,13.20
2023-04-12T21:12:02.761Z,13.30
2023-04-12T21:14:29.931Z,13.40
2023-04-12T21:17:00.756Z,13.40
2023-04-12T21:19:27.821Z,13.50
2023-04-12T21:21:54.787Z,13.40
2023-04-12T21:24:21.826Z,13.40
2023-04-12T21:26:56.532Z,13.40
2023-04-12T21:29:23.933Z,13.30
2023-04-12T21:31:51.072Z,13.30
2023-04-12T21:34:19.817Z,13.00
2023-04-12T21:36:47.074Z,12.70
2023-04-12T21:39:14.058Z,13.00
2023-04-12T21:41:41.041Z,13.00
2023-04-12T21:44:08.357Z,12.80
2023-04-12T21:46:36.072Z,12.60
2023-04-12T21:49:05.060Z,12.50
2023-04-12T21:51:32.901Z,12.80
2023-04-12T21:53:59.868Z,12.80
2023-04-12T21:56:26.985Z,12.80
2023-04-12T21:58:53.968Z,13.10
2023-04-12T22:01:21.031Z,13.00
2023-04-12T22:03:48.212Z,12.80
2023-04-12T22:06:15.412Z,12.60
2023-04-12T22:08:44.263Z,12.70
2023-04-12T22:11:12.018Z,12.50
2023-04-12T22:13:41.835Z,12.30
2023-04-12T22:16:13.689Z,12.30
2023-04-12T22:18:41.323Z,12.30
2023-04-12T22:21:08.494Z,12.40
2023-04-12T22:23:41.042Z,12.40
2023-04-12T22:26:27.626Z,12.30
2023-04-12T22:29:31.790Z,12.30
2023-04-12T22:31:58.994Z,12.40
2023-04-12T22:34:27.189Z,12.10
2023-04-12T22:36:59.406Z,12.10
2023-04-12T22:39:27.012Z,11.90
2023-04-12T22:42:13.136Z,11.90
2023-04-12T22:44:40.140Z,11.90
2023-04-12T22:47:07.578Z,11.80
2023-04-12T22:49:44.966Z,11.70
2023-04-12T22:52:12.248Z,11.90
2023-04-12T22:54:40.352Z,11.80
2023-04-12T22:57:07.515Z,11.50
2023-04-12T22:59:35.011Z,11.60
2023-04-12T23:02:02.641Z,11.80
2023-04-12T23:04:51.506Z,11.80
2023-04-12T23:07:18.641Z,11.70
2023-04-12T23:10:04.682Z,11.50
2023-04-12T23:12:32.029Z,11.50
2023-04-12T23:15:17.865Z,11.50
2023-04-12T23:17:44.930Z,11.60
2023-04-12T23:20:15.039Z,11.50
2023-04-12T23:22:57.728Z,11.40
2023-04-12T23:25:45.872Z,11.30
2023-04-12T23:28:15.124Z,11.30
2023-04-12T23:30:44.051Z,11.10
2023-04-12T23:33:12.434Z,11.20
2023-04-12T23:35:41.281Z,11.20
2023-04-12T23:38:32.767Z,11.10
2023-04-12T23:41:04.245Z,11.50
2023-04-12T23:43:32.736Z,11.80
2023-04-12T23:46:00.007Z,11.60
2023-04-12T23:48:27.323Z,11.20
2023-04-12T23:50:54.523Z,11.00
2023-04-12T23:53:22.044Z,10.90
2023-04-12T23:55:51.969Z,11.00
2023-04-12T23:58:19.634Z,11.00
